Time;durP1;ratioP1;P1;durP2;ratioP2;P2;SDS_P1;SDS_P2;PMS_P1;PMS_P2;Temp;Humidity;BMP_temperature;BMP_pressure;BME280_temperature;BME280_humidity;BME280_pressure;Samples;Min_cycle;Max_cycle;Signal;HPM_P1;HPM_P2
2023/04/30 00:01:35;;;;;;;12.68;7.55;;;;;;;12.44;54.80;94667.75;5025468;28;20045;-75
2023/04/30 00:04:01;;;;;;;11.13;7.03;;;;;;;12.39;55.13;94668.34;5025937;28;20029;-74
2023/04/30 00:06:26;;;;;;;10.07;6.90;;;;;;;12.35;55.17;94672.44;5027218;28;20106;-75
2023/04/30 00:08:54;;;;;;;10.88;7.18;;;;;;;12.29;55.22;94677.03;5027555;28;20221;-75
2023/04/30 00:11:20;;;;;;;9.43;6.50;;;;;;;12.06;55.20;94668.06;5027372;28;20064;-74
2023/04/30 00:13:45;;;;;;;14.00;8.07;;;;;;;12.02;54.70;94663.91;5028115;28;20109;-74
2023/04/30 00:16:11;;;;;;;10.95;5.88;;;;;;;11.84;54.54;94672.84;5030539;28;20029;-74
2023/04/30 00:18:37;;;;;;;8.07;5.30;;;;;;;11.61;54.03;94668.56;5025745;28;20072;-75
2023/04/30 00:21:03;;;;;;;9.18;5.35;;;;;;;11.53;54.10;94668.06;5029142;28;20044;-75
2023/04/30 00:23:28;;;;;;;8.98;5.57;;;;;;;11.51;54.19;94664.22;5027013;28;20018;-75
2023/04/30 00:25:53;;;;;;;10.15;5.15;;;;;;;11.56;53.91;94669.91;5026867;28;20029;-75
2023/04/30 00:28:19;;;;;;;8.98;5.90;;;;;;;11.32;54.42;94658.59;5027208;28;20381;-75
2023/04/30 00:30:44;;;;;;;11.20;6.13;;;;;;;11.03;55.30;94671.81;5025514;28;20460;-75
2023/04/30 00:33:10;;;;;;;10.35;5.97;;;;;;;10.74;55.94;94666.53;5027352;28;20021;-75
2023/04/30 00:35:35;;;;;;;9.80;5.55;;;;;;;10.90;55.56;94672.63;5025484;28;20033;-75
2023/04/30 00:38:01;;;;;;;8.07;5.75;;;;;;;10.98;55.57;94669.63;5026708;28;20026;-75
2023/04/30 00:40:26;;;;;;;8.20;5.32;;;;;;;11.06;55.04;94666.19;5025318;28;20422;-75
2023/04/30 00:42:54;;;;;;;8.43;5.65;;;;;;;11.16;55.05;94665.03;5026425;28;20025;-75
2023/04/30 00:45:21;;;;;;;10.65;5.22;;;;;;;11.19;54.99;94662.63;5026389;28;20065;-75
2023/04/30 00:47:46;;;;;;;10.70;6.10;;;;;;;11.13;54.98;94659.69;5026747;28;20029;-75
2023/04/30 00:50:14;;;;;;;9.82;5.03;;;;;;;11.08;54.71;94663.00;5025510;28;20463;-75
2023/04/30 00:52:41;;;;;;;10.13;6.25;;;;;;;11.18;54.50;94656.34;5026657;28;20029;-75
2023/04/30 00:55:07;;;;;;;14.40;6.72;;;;;;;11.23;54.54;94661.25;5025432;28;20029;-75
2023/04/30 00:57:34;;;;;;;11.65;6.45;;;;;;;11.25;54.27;94661.59;5025081;28;20114;-75
2023/04/30 01:00:00;;;;;;;11.38;5.78;;;;;;;11.25;54.80;94655.34;5024852;28;20030;-75
2023/04/30 01:02:26;;;;;;;10.00;6.05;;;;;;;11.22;54.28;94656.22;5024792;28;20034;-75
2023/04/30 01:04:51;;;;;;;10.60;6.10;;;;;;;11.23;54.74;94653.00;5025949;28;20566;-75
2023/04/30 01:07:17;;;;;;;11.18;5.65;;;;;;;11.26;54.84;94657.63;5008601;28;20117;-75
2023/04/30 01:09:43;;;;;;;12.95;5.88;;;;;;;11.25;54.83;94658.84;5033776;28;20022;-77
2023/04/30 01:12:15;;;;;;;9.40;5.35;;;;;;;11.24;54.90;94659.28;5026967;28;20403;-74
2023/04/30 01:15:06;;;;;;;9.48;5.55;;;;;;;11.20;55.04;94656.66;5026085;28;20112;-75
2023/04/30 01:17:40;;;;;;;10.13;5.72;;;;;;;11.16;54.90;94656.78;5024556;28;20108;-74
2023/04/30 01:20:07;;;;;;;9.52;5.70;;;;;;;11.12;54.94;94661.63;5024809;28;20030;-75
2023/04/30 01:22:46;;;;;;;7.70;5.45;;;;;;;11.09;54.90;94659.78;5008291;28;20038;-75
2023/04/30 01:25:33;;;;;;;8.88;6.68;;;;;;;11.05;54.98;94666.63;5028845;28;20025;-74
2023/04/30 01:28:08;;;;;;;8.98;6.13;;;;;;;11.02;54.95;94660.06;5025707;28;20038;-74
2023/04/30 01:30:34;;;;;;;11.25;6.03;;;;;;;10.99;55.13;94660.16;5024260;28;20030;-75
2023/04/30 01:33:00;;;;;;;9.23;6.03;;;;;;;10.95;55.30;94660.28;5025494;28;20561;-75
2023/04/30 01:35:47;;;;;;;7.53;5.65;;;;;;;10.90;55.08;94656.13;5024481;28;20049;-76
2023/04/30 01:38:34;;;;;;;9.73;6.03;;;;;;;10.89;55.38;94659.31;5024527;28;20026;-74
2023/04/30 01:41:32;;;;;;;9.63;5.72;;;;;;;10.84;55.51;94662.66;5023843;28;20180;-75
2023/04/30 01:44:04;;;;;;;13.27;5.65;;;;;;;10.79;55.50;94663.97;5023896;28;20029;-75
2023/04/30 01:46:30;;;;;;;9.07;6.00;;;;;;;10.73;55.84;94656.75;5025689;28;20419;-75
2023/04/30 01:48:55;;;;;;;11.40;6.00;;;;;;;10.73;55.74;94663.00;5024194;28;20421;-75
2023/04/30 01:51:47;;;;;;;8.77;5.80;;;;;;;10.72;55.75;94660.69;5025402;28;20059;-75
2023/04/30 01:54:23;;;;;;;8.32;6.05;;;;;;;10.70;55.70;94657.63;5007748;28;20396;-74
2023/04/30 01:56:56;;;;;;;8.73;6.32;;;;;;;10.68;55.76;94660.06;5025144;28;20033;-74
2023/04/30 01:59:22;;;;;;;9.85;5.75;;;;;;;10.66;55.88;94663.22;5024199;28;20033;-74
2023/04/30 02:01:47;;;;;;;9.80;6.30;;;;;;;10.70;56.43;94665.88;5007109;28;20088;-74
2023/04/30 02:04:13;;;;;;;9.00;6.97;;;;;;;10.71;56.32;94664.66;5027682;28;20025;-75
2023/04/30 02:06:40;;;;;;;12.77;6.93;;;;;;;10.71;56.37;94662.66;5025418;28;20102;-74
2023/04/30 02:09:05;;;;;;;10.30;6.80;;;;;;;10.67;56.19;94653.78;5024828;28;20079;-74
2023/04/30 02:11:31;;;;;;;9.73;6.43;;;;;;;10.72;56.16;94664.19;5024559;28;20021;-74
2023/04/30 02:13:56;;;;;;;9.18;6.05;;;;;;;10.73;56.30;94659.50;5023404;28;20116;-75
2023/04/30 02:16:22;;;;;;;10.70;6.38;;;;;;;10.72;56.24;94664.19;5023434;28;20132;-75
2023/04/30 02:18:48;;;;;;;10.43;6.30;;;;;;;10.72;56.08;94666.19;5023825;28;20407;-74
2023/04/30 02:21:13;;;;;;;10.55;6.35;;;;;;;10.67;56.18;94659.28;5025016;28;20030;-75
2023/04/30 02:23:40;;;;;;;9.32;6.13;;;;;;;10.67;56.37;94664.78;5023787;28;20029;-76
2023/04/30 02:26:06;;;;;;;13.00;6.75;;;;;;;10.68;56.46;94662.81;5023251;28;20039;-75
2023/04/30 02:28:32;;;;;;;8.02;6.50;;;;;;;10.67;56.25;94653.00;5023309;28;20104;-76
2023/04/30 02:30:57;;;;;;;9.52;6.47;;;;;;;10.65;56.48;94658.94;5027158;28;20021;-74
2023/04/30 02:33:22;;;;;;;10.90;5.97;;;;;;;10.63;56.45;94656.66;5024803;28;20029;-73
2023/04/30 02:35:48;;;;;;;10.20;6.07;;;;;;;10.64;56.46;94662.91;5024633;28;20053;-75
2023/04/30 02:38:13;;;;;;;8.18;6.25;;;;;;;10.61;56.35;94658.31;5024641;28;20112;-75
2023/04/30 02:40:40;;;;;;;14.10;6.50;;;;;;;10.63;56.26;94664.13;5024711;28;20413;-76
2023/04/30 02:43:06;;;;;;;10.73;6.22;;;;;;;10.66;56.32;94660.47;5024652;28;20017;-76
2023/04/30 02:45:31;;;;;;;9.30;6.07;;;;;;;10.66;56.28;94665.97;5024701;28;20080;-75
2023/04/30 02:47:57;;;;;;;9.77;6.93;;;;;;;10.67;55.97;94658.50;5024335;28;20033;-75
2023/04/30 02:50:22;;;;;;;9.10;6.50;;;;;;;10.70;56.47;94669.38;5024218;28;20078;-75
2023/04/30 02:52:48;;;;;;;9.18;6.20;;;;;;;10.71;56.85;94664.66;5023194;28;20460;-75
2023/04/30 02:55:13;;;;;;;10.00;6.38;;;;;;;10.73;56.74;94668.50;5022763;28;20060;-75
2023/04/30 02:57:39;;;;;;;9.07;6.00;;;;;;;10.74;56.60;94669.28;5027738;28;20017;-75
2023/04/30 03:00:05;;;;;;;10.13;6.20;;;;;;;10.75;56.53;94671.56;5023821;28;20730;-76
2023/04/30 03:02:30;;;;;;;12.20;7.05;;;;;;;10.76;56.42;94678.59;5023079;28;20037;-74
2023/04/30 03:04:55;;;;;;;11.05;6.82;;;;;;;10.79;56.25;94671.47;5024547;28;20018;-74
2023/04/30 03:07:21;;;;;;;10.20;7.15;;;;;;;10.80;56.48;94673.75;5023949;28;20117;-74
2023/04/30 03:09:46;;;;;;;10.20;6.50;;;;;;;10.80;56.71;94673.75;5023005;28;20040;-75
2023/04/30 03:12:13;;;;;;;11.07;6.85;;;;;;;10.82;56.65;94676.81;5022714;28;20021;-75
2023/04/30 03:14:38;;;;;;;9.52;6.57;;;;;;;10.84;56.89;94673.66;5022927;28;20033;-74
2023/04/30 03:17:04;;;;;;;8.40;6.30;;;;;;;10.85;56.82;94675.94;5023861;28;20037;-74
2023/04/30 03:19:29;;;;;;;9.38;6.25;;;;;;;10.85;56.58;94677.94;5024382;28;20083;-74
2023/04/30 03:21:55;;;;;;;8.40;6.13;;;;;;;10.83;56.72;94683.09;5024503;28;20441;-74
2023/04/30 03:24:20;;;;;;;8.98;6.65;;;;;;;10.83;56.64;94683.84;5024971;28;20030;-74
2023/04/30 03:26:46;;;;;;;12.40;6.80;;;;;;;10.82;56.75;94676.06;5028069;28;20033;-75
2023/04/30 03:29:12;;;;;;;9.25;6.32;;;;;;;10.83;56.62;94681.09;5027817;28;20021;-74
2023/04/30 03:31:37;;;;;;;9.57;7.03;;;;;;;10.80;56.41;94675.75;5026521;28;20022;-75
2023/04/30 03:34:02;;;;;;;9.82;6.30;;;;;;;10.82;56.38;94681.56;5029110;28;20404;-74
2023/04/30 03:36:28;;;;;;;9.73;6.88;;;;;;;10.81;56.59;94693.78;5029384;28;20595;-75
2023/04/30 03:38:53;;;;;;;8.10;5.80;;;;;;;10.83;56.47;94692.09;5028080;28;20207;-75
2023/04/30 03:41:19;;;;;;;9.32;5.80;;;;;;;10.83;56.48;94691.34;5027899;28;20160;-75
2023/04/30 03:43:45;;;;;;;13.35;6.38;;;;;;;10.84;56.39;94701.16;5027938;28;20028;-75
2023/04/30 03:46:11;;;;;;;10.93;7.13;;;;;;;10.84;56.78;94704.66;5027413;28;20033;-75
2023/04/30 03:48:36;;;;;;;12.00;6.60;;;;;;;10.86;56.63;94706.97;5027747;28;20044;-75
2023/04/30 03:51:02;;;;;;;10.07;6.47;;;;;;;10.90;56.47;94719.38;5027644;28;20116;-74
2023/04/30 03:53:27;;;;;;;10.30;7.15;;;;;;;10.91;56.66;94720.16;5032081;28;20056;-74
2023/04/30 03:55:53;;;;;;;9.45;6.90;;;;;;;10.94;56.59;94715.75;5027991;28;20146;-75
2023/04/30 03:58:20;;;;;;;8.95;6.88;;;;;;;10.94;56.54;94718.47;5026231;28;20025;-75
2023/04/30 04:00:46;;;;;;;11.05;6.78;;;;;;;10.94;56.29;94721.22;5026163;28;20053;-75
2023/04/30 04:03:13;;;;;;;11.15;6.93;;;;;;;10.95;55.97;94720.78;5026518;28;20056;-75
2023/04/30 04:05:38;;;;;;;12.43;6.90;;;;;;;10.97;56.07;94712.88;5009719;28;20091;-75
2023/04/30 04:08:05;;;;;;;9.90;7.65;;;;;;;10.97;55.58;94718.38;5026230;28;20056;-76
2023/04/30 04:10:31;;;;;;;10.30;6.75;;;;;;;11.01;55.71;94726.50;5025537;28;20030;-75
2023/04/30 04:12:56;;;;;;;8.07;6.35;;;;;;;11.04;55.82;94715.38;5025964;28;20029;-75
2023/04/30 04:15:22;;;;;;;11.18;6.53;;;;;;;11.06;55.52;94714.94;5025829;28;20030;-76
2023/04/30 04:17:47;;;;;;;9.05;5.95;;;;;;;11.06;55.66;94725.94;5027151;28;20566;-75
2023/04/30 04:20:13;;;;;;;9.63;5.97;;;;;;;11.08;55.26;94732.53;5027394;28;20097;-75
2023/04/30 04:22:38;;;;;;;7.90;5.88;;;;;;;11.10;55.03;94721.09;5025717;28;20029;-75
2023/04/30 04:25:04;;;;;;;9.63;6.18;;;;;;;11.11;54.73;94723.38;5009569;28;20515;-74
2023/04/30 04:27:29;;;;;;;6.82;5.70;;;;;;;11.10;54.69;94721.84;5025177;28;20101;-75
2023/04/30 04:29:55;;;;;;;7.93;5.57;;;;;;;11.16;54.71;94733.81;5025405;28;20095;-74
2023/04/30 04:32:21;;;;;;;8.27;5.68;;;;;;;11.19;54.58;94736.91;5026480;28;20380;-75
2023/04/30 04:34:48;;;;;;;9.85;6.47;;;;;;;11.17;54.75;94731.84;5026336;28;20032;-74
2023/04/30 04:37:14;;;;;;;9.02;6.60;;;;;;;11.23;54.42;94732.03;5025629;28;20025;-74
2023/04/30 04:39:39;;;;;;;13.43;7.30;;;;;;;11.20;54.56;94732.94;5026741;28;20022;-76
2023/04/30 04:42:05;;;;;;;13.95;7.43;;;;;;;11.22;54.69;94736.00;5029220;28;20534;-76
2023/04/30 04:44:31;;;;;;;13.23;7.55;;;;;;;11.23;54.79;94735.56;5026571;28;20021;-76
2023/04/30 04:46:57;;;;;;;11.02;7.35;;;;;;;11.24;54.60;94733.56;5029217;28;20026;-75
2023/04/30 04:49:23;;;;;;;11.68;6.97;;;;;;;11.26;54.42;94737.44;5026548;28;20037;-74
2023/04/30 04:51:48;;;;;;;8.02;6.53;;;;;;;11.27;54.39;94741.72;5008571;28;20035;-76
2023/04/30 04:54:13;;;;;;;8.63;6.72;;;;;;;11.31;54.33;94744.34;5025151;28;20032;-75
2023/04/30 04:56:39;;;;;;;11.65;7.38;;;;;;;11.36;54.54;94752.03;5025109;28;20037;-75
2023/04/30 04:59:04;;;;;;;10.32;7.78;;;;;;;11.39;54.27;94757.41;5026612;28;20036;-75
2023/04/30 05:01:30;;;;;;;12.18;8.13;;;;;;;11.43;54.00;94751.78;5024457;28;20046;-75
2023/04/30 05:03:55;;;;;;;9.00;7.05;;;;;;;11.47;53.97;94744.19;5025113;28;20037;-74
2023/04/30 05:06:21;;;;;;;10.77;7.00;;;;;;;11.52;53.91;94751.84;5024923;28;20488;-74
2023/04/30 05:08:46;;;;;;;13.57;6.60;;;;;;;11.54;53.80;94752.19;5026204;28;20033;-76
2023/04/30 05:11:11;;;;;;;11.82;6.72;;;;;;;11.59;53.77;94753.59;5024784;28;20029;-76
2023/04/30 05:13:37;;;;;;;9.05;6.03;;;;;;;11.63;53.83;94754.97;5025856;28;20187;-76
2023/04/30 05:16:02;;;;;;;11.35;7.35;;;;;;;11.61;53.75;94743.66;5026575;28;20033;-74
2023/04/30 05:18:28;;;;;;;11.43;7.22;;;;;;;11.70;53.66;94746.50;5025084;28;20463;-75
2023/04/30 05:20:53;;;;;;;11.38;7.20;;;;;;;11.76;53.68;94757.69;5008077;28;20026;-76
2023/04/30 05:23:19;;;;;;;11.75;7.45;;;;;;;11.77;53.62;94750.97;5024876;28;20026;-74
2023/04/30 05:25:45;;;;;;;10.63;7.70;;;;;;;11.77;53.60;94748.22;5025765;28;20030;-75
2023/04/30 05:28:10;;;;;;;12.30;7.78;;;;;;;11.84;53.79;94750.72;5008124;28;20546;-76
2023/04/30 05:30:36;;;;;;;11.98;7.75;;;;;;;11.86;53.67;94753.78;5024334;28;20034;-75
2023/04/30 05:33:01;;;;;;;13.40;8.07;;;;;;;11.94;53.68;94752.34;5024337;28;20041;-76
2023/04/30 05:35:27;;;;;;;14.00;8.73;;;;;;;12.01;53.88;94756.03;5024535;28;20053;-76
2023/04/30 05:37:52;;;;;;;13.55;8.18;;;;;;;12.04;53.63;94757.88;5024427;28;20025;-75
2023/04/30 05:40:18;;;;;;;11.82;8.60;;;;;;;12.06;53.66;94752.69;5024679;28;20033;-75
2023/04/30 05:42:43;;;;;;;13.35;9.07;;;;;;;12.10;53.68;94756.88;5030365;28;20029;-75
2023/04/30 05:45:11;;;;;;;17.42;10.20;;;;;;;12.15;53.53;94756.25;5028339;28;20052;-75
2023/04/30 05:47:36;;;;;;;15.13;9.63;;;;;;;12.20;53.49;94755.69;5023856;28;20030;-75
2023/04/30 05:50:02;;;;;;;14.40;10.18;;;;;;;12.30;53.48;94762.00;5024346;28;20029;-76
2023/04/30 05:52:27;;;;;;;19.63;10.55;;;;;;;12.33;53.29;94752.84;5024078;28;20524;-76
2023/04/30 05:54:53;;;;;;;16.77;9.50;;;;;;;12.34;53.39;94751.63;5007652;28;20071;-76
2023/04/30 05:57:18;;;;;;;14.07;9.82;;;;;;;12.37;53.27;94749.94;5025771;28;20037;-77
2023/04/30 05:59:44;;;;;;;20.67;9.75;;;;;;;12.41;53.28;94756.09;5024304;28;20400;-76
2023/04/30 06:02:09;;;;;;;12.70;8.18;;;;;;;12.33;53.14;94758.34;5030393;28;20038;-78
2023/04/30 06:04:35;;;;;;;15.05;7.72;;;;;;;12.31;53.12;94766.28;5027740;28;20467;-76
2023/04/30 06:07:00;;;;;;;11.55;8.13;;;;;;;12.42;53.19;94772.16;5027389;28;20286;-76
2023/04/30 06:09:27;;;;;;;13.48;8.77;;;;;;;12.45;52.87;94768.53;5032391;28;20033;-77
2023/04/30 06:11:52;;;;;;;9.48;6.65;;;;;;;12.37;52.54;94770.00;5008098;28;20029;-75
2023/04/30 06:14:19;;;;;;;15.25;8.85;;;;;;;12.41;52.66;94776.16;5025677;28;20062;-76
2023/04/30 06:16:44;;;;;;;12.02;6.80;;;;;;;12.45;52.61;94770.50;5029869;28;20021;-76
2023/04/30 06:19:10;;;;;;;8.07;6.07;;;;;;;12.47;52.48;94773.56;5011641;28;20032;-76
2023/04/30 06:21:36;;;;;;;7.45;5.80;;;;;;;12.60;52.31;94776.22;5025909;28;20519;-76
2023/04/30 06:24:02;;;;;;;9.07;6.40;;;;;;;12.69;51.86;94773.50;5023467;28;20053;-77
2023/04/30 06:26:27;;;;;;;10.63;7.28;;;;;;;12.73;51.98;94783.19;5023594;28;20025;-76
2023/04/30 06:28:52;;;;;;;12.27;7.57;;;;;;;12.83;51.76;94783.97;5027242;28;20093;-75
2023/04/30 06:31:18;;;;;;;11.25;7.65;;;;;;;12.79;52.24;94786.13;5023724;28;20032;-76
2023/04/30 06:33:43;;;;;;;12.45;9.65;;;;;;;12.79;52.18;94780.59;5028803;28;20022;-75
2023/04/30 06:36:09;;;;;;;11.13;8.23;;;;;;;12.82;52.54;94773.41;5024617;28;20032;-75
2023/04/30 06:38:34;;;;;;;12.02;8.52;;;;;;;12.95;52.57;94774.81;5024938;28;20026;-77
2023/04/30 06:41:00;;;;;;;11.75;7.97;;;;;;;13.06;52.38;94776.38;5022907;28;20037;-75
2023/04/30 06:43:25;;;;;;;11.93;7.63;;;;;;;13.17;52.07;94771.16;5023978;28;20021;-76
2023/04/30 06:45:50;;;;;;;14.70;7.85;;;;;;;13.35;51.51;94773.22;5024337;28;20062;-76
2023/04/30 06:48:16;;;;;;;11.77;7.53;;;;;;;13.52;50.94;94783.50;5023389;28;20017;-77
2023/04/30 06:50:44;;;;;;;9.85;6.97;;;;;;;13.61;50.83;94770.94;5029216;28;20104;-76
2023/04/30 06:53:13;;;;;;;10.73;7.13;;;;;;;13.71;50.21;94778.78;5024218;28;20033;-76
2023/04/30 06:55:40;;;;;;;9.25;6.85;;;;;;;13.81;49.96;94779.50;5023508;28;20080;-76
2023/04/30 06:58:06;;;;;;;8.90;6.90;;;;;;;13.99;49.47;94771.22;5022604;28;20091;-77
2023/04/30 07:00:32;;;;;;;11.77;7.28;;;;;;;14.13;49.28;94777.34;5023217;28;20069;-76
2023/04/30 07:03:02;;;;;;;11.48;7.75;;;;;;;14.28;49.06;94772.69;5022595;28;20057;-75
2023/04/30 07:05:28;;;;;;;10.70;7.72;;;;;;;14.42;48.81;94780.34;5024473;28;20041;-75
2023/04/30 07:07:53;;;;;;;13.15;8.23;;;;;;;14.48;48.79;94778.50;5023207;28;20030;-75
2023/04/30 07:10:19;;;;;;;10.30;7.55;;;;;;;14.51;48.45;94774.81;5024018;28;20091;-76
2023/04/30 07:12:44;;;;;;;11.63;8.05;;;;;;;14.66;48.24;94780.44;5023109;28;20415;-76
2023/04/30 07:15:11;;;;;;;10.20;7.55;;;;;;;14.77;48.23;94774.38;5022940;28;20021;-75
2023/04/30 07:17:37;;;;;;;13.27;9.35;;;;;;;14.88;48.12;94775.41;5023028;28;20061;-76
2023/04/30 07:20:04;;;;;;;15.10;8.07;;;;;;;14.98;47.90;94778.16;5023987;28;20483;-75
2023/04/30 07:22:30;;;;;;;9.50;7.53;;;;;;;15.10;47.66;94777.91;5023102;28;20041;-78
2023/04/30 07:24:56;;;;;;;16.67;8.13;;;;;;;15.17;47.42;94782.34;5023144;28;20036;-76
2023/04/30 07:27:21;;;;;;;10.13;7.70;;;;;;;15.19;47.56;94779.09;5007122;28;20021;-76
2023/04/30 07:29:47;;;;;;;13.52;7.65;;;;;;;15.28;47.23;94776.28;5030048;28;20068;-76
2023/04/30 07:32:13;;;;;;;12.15;7.70;;;;;;;15.33;46.71;94778.41;5022543;28;20043;-76
2023/04/30 07:34:39;;;;;;;9.98;7.40;;;;;;;15.38;46.36;94781.28;5023181;28;20470;-76
2023/04/30 07:37:04;;;;;;;11.30;7.47;;;;;;;15.46;46.45;94781.69;5022239;28;20021;-75
2023/04/30 07:39:30;;;;;;;12.65;7.07;;;;;;;15.46;45.93;94781.69;5023071;28;20033;-77
2023/04/30 07:41:56;;;;;;;9.73;6.15;;;;;;;15.45;46.07;94785.69;5022687;28;20025;-75
2023/04/30 07:44:21;;;;;;;10.20;6.72;;;;;;;15.41;46.18;94774.78;5022157;28;20025;-75
2023/04/30 07:46:46;;;;;;;9.25;6.97;;;;;;;15.51;46.00;94781.03;5022970;28;20132;-75
2023/04/30 07:49:12;;;;;;;9.15;6.78;;;;;;;15.59;46.07;94782.19;5005633;28;20040;-76
2023/04/30 07:51:38;;;;;;;12.43;6.38;;;;;;;15.71;45.98;94779.69;5006082;28;20515;-77
2023/04/30 07:54:04;;;;;;;11.63;5.75;;;;;;;15.81;45.87;94781.13;5023779;28;20025;-75
2023/04/30 07:56:29;;;;;;;8.55;5.50;;;;;;;15.88;45.59;94772.44;5009023;28;20083;-76
2023/04/30 07:58:55;;;;;;;12.60;6.57;;;;;;;15.95;45.39;94782.44;5022447;28;20038;-76
2023/04/30 08:01:20;;;;;;;8.90;6.00;;;;;;;15.83;45.46;94784.22;5022090;28;20488;-76
2023/04/30 08:03:45;;;;;;;8.70;5.22;;;;;;;15.75;45.06;94794.13;5024202;28;20021;-75
2023/04/30 08:06:11;;;;;;;7.57;4.65;;;;;;;15.80;45.19;94780.38;5005384;28;20492;-75
2023/04/30 08:08:36;;;;;;;9.98;5.78;;;;;;;15.89;45.48;94783.09;5024138;28;20087;-75
2023/04/30 08:11:02;;;;;;;10.23;5.80;;;;;;;16.03;45.16;94789.13;5025331;28;20025;-75
2023/04/30 08:13:28;;;;;;;11.98;7.07;;;;;;;15.91;45.34;94786.13;5026043;28;20463;-76
2023/04/30 08:15:53;;;;;;;10.70;5.43;;;;;;;16.04;45.36;94793.41;5025521;28;20026;-75
2023/04/30 08:18:19;;;;;;;8.88;6.25;;;;;;;15.95;45.01;94794.28;5027175;28;20029;-75
2023/04/30 08:20:45;;;;;;;7.30;5.03;;;;;;;16.10;44.97;94799.81;5026889;28;20056;-74
2023/04/30 08:23:10;;;;;;;6.50;4.60;;;;;;;16.11;44.81;94793.78;5030310;28;20013;-74
2023/04/30 08:25:36;;;;;;;7.60;4.60;;;;;;;16.05;43.98;94789.41;5026189;28;20433;-74
2023/04/30 08:28:01;;;;;;;7.43;3.97;;;;;;;16.10;43.56;94789.50;5025238;28;20105;-75
2023/04/30 08:30:27;;;;;;;6.95;4.53;;;;;;;16.16;43.11;94795.16;5027094;28;20407;-74
2023/04/30 08:32:52;;;;;;;7.38;4.13;;;;;;;16.42;42.87;94793.34;5025601;28;20021;-74
2023/04/30 08:35:18;;;;;;;8.07;4.60;;;;;;;16.63;42.47;94783.13;5026851;28;20018;-74
2023/04/30 08:37:43;;;;;;;5.18;3.88;;;;;;;16.73;41.75;94783.78;5025091;28;20029;-75
2023/04/30 08:40:10;;;;;;;5.80;3.75;;;;;;;17.03;41.16;94783.72;5025979;28;20030;-76
2023/04/30 08:42:37;;;;;;;6.30;4.00;;;;;;;17.16;40.86;94790.50;5025244;28;20026;-74
2023/04/30 08:45:03;;;;;;;8.65;3.95;;;;;;;17.43;40.67;94785.78;5025125;28;20029;-76
2023/04/30 08:47:29;;;;;;;6.68;4.60;;;;;;;17.48;39.93;94787.88;5025296;28;20036;-76
2023/04/30 08:49:56;;;;;;;6.60;4.45;;;;;;;17.83;40.11;94779.50;5024970;28;20034;-76
2023/04/30 08:52:21;;;;;;;9.75;4.07;;;;;;;18.13;39.87;94777.31;5025330;28;20026;-78
2023/04/30 08:54:47;;;;;;;5.95;3.72;;;;;;;18.45;37.98;94774.56;5024843;28;20558;-76
2023/04/30 08:57:13;;;;;;;4.28;3.20;;;;;;;18.71;37.30;94775.31;5026976;28;20488;-75
2023/04/30 08:59:38;;;;;;;5.78;3.47;;;;;;;18.97;37.00;94768.91;5011658;28;20021;-75
2023/04/30 09:02:05;;;;;;;5.85;3.30;;;;;;;19.22;36.34;94767.34;5025189;28;20048;-77
2023/04/30 09:04:32;;;;;;;5.82;3.92;;;;;;;19.43;36.36;94757.53;5025264;28;20053;-75
2023/04/30 09:06:58;;;;;;;6.05;4.03;;;;;;;19.82;35.39;94757.75;5024734;28;20041;-77
2023/04/30 09:09:28;;;;;;;4.13;3.47;;;;;;;20.27;34.82;94757.09;5025213;28;20392;-76
2023/04/30 09:12:16;;;;;;;4.90;3.58;;;;;;;20.61;34.58;94752.34;5008311;28;20121;-76
2023/04/30 09:14:56;;;;;;;5.95;3.45;;;;;;;20.69;33.82;94748.53;5026422;28;20028;-76
2023/04/30 09:17:22;;;;;;;3.90;3.13;;;;;;;20.73;33.50;94744.72;5030773;28;20029;-77
2023/04/30 09:19:47;;;;;;;6.35;3.33;;;;;;;20.94;33.60;94746.75;5025973;28;20026;-76
2023/04/30 09:22:22;;;;;;;5.13;3.20;;;;;;;20.98;33.19;94740.88;5025140;28;20026;-75
2023/04/30 09:24:49;;;;;;;4.68;3.20;;;;;;;20.60;33.62;94736.88;5024737;28;20461;-76
2023/04/30 09:27:19;;;;;;;4.18;3.13;;;;;;;20.79;34.18;94737.84;5008366;28;20026;-76
2023/04/30 09:29:45;;;;;;;4.70;3.33;;;;;;;20.95;33.75;94722.34;5024089;28;20463;-76
2023/04/30 09:32:10;;;;;;;6.35;4.00;;;;;;;20.95;32.93;94725.16;5008243;28;20029;-75
2023/04/30 09:34:36;;;;;;;6.60;4.05;;;;;;;21.15;33.11;94733.22;5024524;28;20468;-75
2023/04/30 09:37:02;;;;;;;3.95;3.55;;;;;;;21.04;33.03;94726.91;5025616;28;20036;-76
2023/04/30 09:39:28;;;;;;;6.35;4.43;;;;;;;20.92;33.24;94728.94;5024521;28;20032;-76
2023/04/30 09:42:07;;;;;;;6.53;4.40;;;;;;;21.06;32.69;94725.13;5024095;28;20411;-76
2023/04/30 09:44:36;;;;;;;4.65;3.83;;;;;;;21.23;32.79;94725.09;5024350;28;20025;-76
2023/04/30 09:47:02;;;;;;;4.60;3.35;;;;;;;21.64;32.06;94718.88;5025417;28;20369;-76
2023/04/30 09:49:27;;;;;;;6.18;3.90;;;;;;;21.74;32.08;94718.09;5025739;28;20021;-76
2023/04/30 09:51:55;;;;;;;7.93;4.88;;;;;;;21.83;31.82;94716.25;5024469;28;20021;-76
2023/04/30 09:54:25;;;;;;;5.28;3.58;;;;;;;22.29;31.63;94712.69;5025166;28;20160;-76
2023/04/30 09:56:52;;;;;;;3.42;2.92;;;;;;;22.59;30.58;94715.53;5024006;28;20052;-76
2023/04/30 09:59:21;;;;;;;4.60;2.67;;;;;;;22.32;30.42;94713.72;5023829;28;20549;-76
2023/04/30 10:01:47;;;;;;;4.88;3.38;;;;;;;22.33;30.42;94715.97;5025041;28;20084;-76
2023/04/30 10:04:12;;;;;;;4.65;3.58;;;;;;;22.00;31.21;94712.06;5028708;28;20041;-74
2023/04/30 10:06:38;;;;;;;4.63;3.65;;;;;;;21.99;31.48;94707.75;5025599;28;20036;-75
2023/04/30 10:09:05;;;;;;;3.67;3.00;;;;;;;21.79;31.47;94701.75;5007237;28;20029;-78
2023/04/30 10:11:31;;;;;;;5.35;3.45;;;;;;;21.76;30.80;94706.38;5027058;28;20538;-76
2023/04/30 10:14:03;;;;;;;5.38;3.55;;;;;;;21.71;32.56;94715.53;5028078;28;20035;-76
2023/04/30 10:16:47;;;;;;;4.00;3.10;;;;;;;21.56;32.73;94721.44;5023379;28;20109;-77
2023/04/30 10:19:33;;;;;;;3.17;2.85;;;;;;;20.81;34.84;94737.34;5025420;28;20488;-75
2023/04/30 10:21:58;;;;;;;4.57;3.22;;;;;;;20.45;36.00;94741.91;5022984;28;20037;-75
2023/04/30 10:24:24;;;;;;;5.07;3.70;;;;;;;20.18;36.90;94758.09;5024873;28;20074;-77
2023/04/30 10:26:49;;;;;;;5.57;3.78;;;;;;;19.75;38.14;94746.31;5023841;28;20214;-76
2023/04/30 10:29:16;;;;;;;6.05;3.15;;;;;;;19.45;37.86;94745.91;5024565;28;20372;-76
2023/04/30 10:31:49;;;;;;;3.22;2.90;;;;;;;19.16;38.05;94753.38;5024624;28;20507;-76
2023/04/30 10:34:33;;;;;;;3.33;2.80;;;;;;;19.21;38.35;94749.84;5023126;28;20022;-75
2023/04/30 10:37:11;;;;;;;4.18;3.42;;;;;;;18.97;39.59;94739.03;5023527;28;20030;-76
2023/04/30 10:39:37;;;;;;;3.97;3.17;;;;;;;19.01;39.13;94744.41;5023613;28;20072;-76
2023/04/30 10:42:05;;;;;;;4.25;3.38;;;;;;;19.19;38.66;94738.41;5024361;28;20496;-76
2023/04/30 10:44:36;;;;;;;5.57;3.70;;;;;;;19.57;37.86;94736.34;5024835;28;20030;-76
2023/04/30 10:47:02;;;;;;;8.93;4.22;;;;;;;19.89;37.83;94734.16;5022642;28;20108;-77
2023/04/30 10:49:28;;;;;;;6.75;3.60;;;;;;;19.91;36.63;94723.28;5023394;28;20036;-77
2023/04/30 10:51:57;;;;;;;4.63;3.45;;;;;;;20.12;36.14;94735.00;5022471;28;20030;-77
2023/04/30 10:54:35;;;;;;;3.13;2.50;;;;;;;20.61;34.54;94727.97;5024788;28;20026;-76
2023/04/30 10:57:13;;;;;;;5.40;3.20;;;;;;;20.67;34.64;94727.97;5023185;28;20566;-77
2023/04/30 10:59:52;;;;;;;4.53;3.10;;;;;;;21.17;33.93;94719.53;5022919;28;20025;-77
2023/04/30 11:02:18;;;;;;;3.92;2.70;;;;;;;21.64;32.84;94724.47;5022982;28;20095;-77
2023/04/30 11:05:32;;;;;;;5.50;2.40;;;;;;;21.87;32.16;94714.69;5024026;28;20025;-77
2023/04/30 11:07:57;;;;;;;;;;;;;;;22.04;32.12;94716.66;5012303;28;20052;-76
2023/04/30 11:10:26;;;;;;;3.80;2.65;;;;;;;22.06;31.78;94714.84;5026060;28;20358;-77
2023/04/30 11:12:53;;;;;;;6.07;2.88;;;;;;;21.98;31.97;94713.88;5004920;28;20647;-76
2023/04/30 11:15:26;;;;;;;5.22;3.15;;;;;;;21.90;31.42;94710.09;5005591;28;20492;-75
2023/04/30 11:17:57;;;;;;;5.35;2.95;;;;;;;21.77;32.27;94713.47;5004359;28;20578;-76
2023/04/30 11:20:23;;;;;;;3.15;2.63;;;;;;;21.57;32.38;94722.97;5022158;28;20034;-76
2023/04/30 11:23:16;;;;;;;5.10;3.10;;;;;;;21.42;32.00;94719.72;5005057;28;20033;-75
2023/04/30 11:25:45;;;;;;;3.08;2.75;;;;;;;21.18;32.47;94709.84;5005028;28;20514;-76
2023/04/30 11:28:16;;;;;;;4.57;3.17;;;;;;;21.07;33.14;94709.13;5005364;28;20037;-77
2023/04/30 11:30:54;;;;;;;5.63;3.17;;;;;;;21.04;33.40;94699.72;5021317;28;20029;-76